createdAt,value
2019-04-14T00:00:45.470Z,100001.28
2019-04-14T00:03:34.726Z,100003.67
2019-04-14T00:06:06.966Z,99882.91
2019-04-14T00:08:37.254Z,100002.37
2019-04-14T00:11:08.496Z,100005.58
2019-04-14T00:13:39.249Z,99884.30
2019-04-14T00:16:09.603Z,99996.16
2019-04-14T00:18:40.499Z,99996.95
2019-04-14T00:21:10.902Z,99872.72
2019-04-14T00:23:42.069Z,99991.27
2019-04-14T00:26:31.919Z,99987.48
2019-04-14T00:29:02.668Z,99984.20
2019-04-14T00:31:33.426Z,99973.34
2019-04-14T00:34:07.472Z,99975.73
2019-04-14T00:36:59.399Z,99981.22
2019-04-14T00:39:33.836Z,99982.02
2019-04-14T00:42:14.816Z,99983.43
2019-04-14T00:44:51.814Z,99987.80
2019-04-14T00:47:25.186Z,99991.63
2019-04-14T00:49:55.433Z,99987.57
2019-04-14T00:52:27.506Z,99995.34
2019-04-14T00:54:58.733Z,99997.11
2019-04-14T00:57:29.093Z,99880.78
2019-04-14T00:59:59.603Z,100001.50
2019-04-14T01:02:29.746Z,99994.31
2019-04-14T01:05:00.134Z,99986.48
2019-04-14T01:07:30.550Z,99981.22
2019-04-14T01:10:01.821Z,99992.14
2019-04-14T01:12:32.153Z,99978.97
2019-04-14T01:15:03.082Z,99978.18
2019-04-14T01:17:35.242Z,99975.32
2019-04-14T01:20:05.790Z,99973.45
2019-04-14T01:22:35.938Z,99973.80
2019-04-14T01:25:08.465Z,99983.74
2019-04-14T01:27:39.212Z,99984.23
2019-04-14T01:30:11.079Z,99988.60
2019-04-14T01:32:41.559Z,99993.83
2019-04-14T01:35:12.033Z,99994.80
2019-04-14T01:37:41.972Z,99995.77
2019-04-14T01:40:12.191Z,99985.39
2019-04-14T01:42:42.367Z,99989.47
2019-04-14T01:45:14.503Z,99990.09
2019-04-14T01:47:44.692Z,99985.05
2019-04-14T01:50:15.621Z,99992.00
2019-04-14T01:52:57.409Z,99995.03
2019-04-14T01:55:52.756Z,99988.81
2019-04-14T01:58:27.779Z,99991.36
2019-04-14T02:01:14.981Z,99996.47
2019-04-14T02:03:47.671Z,99999.01
2019-04-14T02:06:20.320Z,100006.71
2019-04-14T02:08:52.215Z,100008.61
2019-04-14T02:11:24.784Z,100005.95
2019-04-14T02:13:57.216Z,100003.33
2019-04-14T02:16:34.831Z,100009.61
2019-04-14T02:19:00.346Z,100001.34
2019-04-14T02:21:30.750Z,100006.66
2019-04-14T02:24:00.571Z,100005.83
2019-04-14T02:26:31.072Z,100008.05
2019-04-14T02:29:01.444Z,100008.81
2019-04-14T02:31:53.459Z,100008.64
2019-04-14T02:34:34.715Z,100005.83
2019-04-14T02:37:05.353Z,100004.03
2019-04-14T02:39:48.513Z,100025.12
2019-04-14T02:44:46.123Z,99881.58
2019-04-14T02:47:36.400Z,100005.34
2019-04-14T02:49:49.436Z,100006.89
2019-04-14T02:52:20.670Z,100004.61
2019-04-14T02:54:51.674Z,100007.14
2019-04-14T02:57:23.090Z,100005.67
2019-04-14T02:59:50.693Z,100004.52
2019-04-14T03:02:30.361Z,100000.64
2019-04-14T03:05:02.464Z,100002.06
2019-04-14T03:10:16.315Z,100002.38
2019-04-14T03:15:01.311Z,100009.80
2019-04-14T03:17:58.248Z,100010.17
2019-04-14T03:25:44.195Z,100010.61
2019-04-14T03:34:08.254Z,100001.90
2019-04-14T03:36:44.201Z,100004.45
2019-04-14T03:41:25.903Z,100008.33
2019-04-14T03:43:41.004Z,100004.69
2019-04-14T03:46:25.563Z,100005.64
2019-04-14T03:51:31.442Z,100004.14
2019-04-14T03:53:51.963Z,100013.63
2019-04-14T03:56:38.363Z,100009.71
2019-04-14T03:59:08.497Z,100005.83
2019-04-14T04:01:39.157Z,100004.81
2019-04-14T04:04:11.907Z,100010.63
2019-04-14T04:06:42.455Z,100005.93
2019-04-14T04:09:12.792Z,100009.64
2019-04-14T04:11:43.476Z,100016.06
2019-04-14T04:14:13.967Z,100017.36
2019-04-14T04:17:18.964Z,100019.42
2019-04-14T04:19:57.741Z,100022.52
2019-04-14T04:23:00.853Z,100020.37
2019-04-14T04:26:02.466Z,100024.59
2019-04-14T04:28:54.451Z,100030.75
2019-04-14T04:31:50.601Z,100027.27
2019-04-14T04:34:29.433Z,100024.81
2019-04-14T04:37:25.674Z,99898.97
2019-04-14T04:39:56.197Z,100032.14
2019-04-14T04:42:26.569Z,100038.85
2019-04-14T04:44:57.446Z,100032.86
2019-04-14T04:47:28.009Z,100035.66
2019-04-14T04:49:57.999Z,100042.30
2019-04-14T04:52:28.134Z,100046.38
2019-04-14T04:54:58.314Z,100039.87
2019-04-14T04:57:28.604Z,100040.55
2019-04-14T04:59:58.450Z,100038.23
2019-04-14T05:02:28.776Z,100041.06
2019-04-14T05:04:59.140Z,100041.23
2019-04-14T05:07:29.550Z,100042.70
2019-04-14T05:10:19.553Z,100043.81
2019-04-14T05:13:05.273Z,100044.77
2019-04-14T05:15:48.902Z,100043.55
2019-04-14T05:18:24.665Z,100049.03
2019-04-14T05:20:55.464Z,100053.09
2019-04-14T05:23:26.048Z,100058.70
2019-04-14T05:25:56.324Z,100058.27
2019-04-14T05:28:26.799Z,100066.36
2019-04-14T05:30:57.009Z,100067.86
2019-04-14T05:33:27.193Z,100069.67
2019-04-14T05:35:59.984Z,100067.70
2019-04-14T05:38:32.232Z,100084.20
2019-04-14T05:41:02.705Z,100066.09
2019-04-14T05:43:41.558Z,100067.28
2019-04-14T05:46:05.604Z,100066.16
2019-04-14T05:48:35.792Z,100075.94
2019-04-14T05:51:06.464Z,100071.78
2019-04-14T05:53:37.239Z,100074.54
2019-04-14T05:56:08.024Z,99954.06
2019-04-14T05:58:38.717Z,100081.93
2019-04-14T06:01:11.318Z,100107.23
2019-04-14T06:03:41.530Z,100085.13
2019-04-14T06:06:11.713Z,100089.73
2019-04-14T06:08:41.596Z,100087.27
2019-04-14T06:11:11.940Z,100090.55
2019-04-14T06:13:42.818Z,100097.97
2019-04-14T06:16:12.648Z,100098.41
2019-04-14T06:18:42.734Z,100094.92
2019-04-14T06:21:12.578Z,100096.79
2019-04-14T06:23:42.615Z,100100.73
2019-04-14T06:26:12.932Z,100096.57
2019-04-14T06:28:43.293Z,100094.34
2019-04-14T06:31:30.665Z,100091.67
2019-04-14T06:34:17.483Z,100100.58
2019-04-14T06:37:04.893Z,100101.85
2019-04-14T06:39:42.004Z,100096.48
2019-04-14T06:42:11.970Z,100093.98
2019-04-14T06:44:42.517Z,100100.09
2019-04-14T06:47:12.862Z,99978.72
2019-04-14T06:49:48.749Z,100097.16
2019-04-14T06:52:14.376Z,100096.91
2019-04-14T06:54:44.477Z,100093.41
2019-04-14T06:57:14.329Z,100093.27
2019-04-14T06:59:44.470Z,100093.12
2019-04-14T07:02:14.900Z,100091.81
2019-04-14T07:04:45.558Z,100093.28
2019-04-14T07:07:15.404Z,100089.22
2019-04-14T07:09:45.795Z,100089.98
2019-04-14T07:12:16.248Z,100096.31
2019-04-14T07:14:46.457Z,100091.11
2019-04-14T07:17:16.726Z,100094.33
2019-04-14T07:19:47.434Z,100089.86
2019-04-14T07:22:17.629Z,100096.59
2019-04-14T07:24:48.232Z,100087.22
2019-04-14T07:27:18.079Z,100084.01
2019-04-14T07:29:53.559Z,100084.98
2019-04-14T07:32:45.889Z,100083.38
2019-04-14T07:35:37.567Z,100083.43
2019-04-14T07:38:29.507Z,100092.13
2019-04-14T07:41:27.733Z,100088.10
2019-04-14T07:44:19.830Z,100088.16
2019-04-14T07:51:52.689Z,99991.97
2019-04-14T07:58:24.541Z,99991.77
2019-04-14T08:05:45.124Z,100042.83
2019-04-14T08:09:24.513Z,100092.68
2019-04-14T08:11:55.281Z,100095.45
2019-04-14T08:14:25.728Z,100102.30
2019-04-14T08:16:56.828Z,100099.23
2019-04-14T08:19:33.540Z,100101.67
2019-04-14T08:22:03.054Z,100100.53
2019-04-14T08:24:33.249Z,100098.68
2019-04-14T08:27:03.685Z,100108.39
2019-04-14T08:29:36.966Z,100099.23
2019-04-14T08:32:07.684Z,100111.45
2019-04-14T08:34:38.421Z,100103.34
2019-04-14T08:37:08.690Z,100098.94
2019-04-14T08:39:40.187Z,100107.90
2019-04-14T08:42:30.038Z,100115.06
2019-04-14T08:45:06.863Z,100108.42
2019-04-14T08:47:50.178Z,100109.42
2019-04-14T08:50:39.569Z,100109.59
2019-04-14T08:53:23.717Z,100075.65
2019-04-14T08:56:17.283Z,100108.42
2019-04-14T08:59:13.884Z,100115.61
2019-04-14T09:02:05.126Z,100120.02
2019-04-14T09:04:44.734Z,100116.30
2019-04-14T09:07:27.288Z,100113.88
2019-04-14T09:10:07.142Z,100115.69
2019-04-14T09:12:42.779Z,100115.39
2019-04-14T09:15:13.262Z,100109.55
2019-04-14T09:17:44.221Z,100108.09
2019-04-14T09:20:15.707Z,100115.58
2019-04-14T09:22:45.601Z,100114.30
2019-04-14T09:25:16.003Z,100118.87
2019-04-14T09:27:45.899Z,100117.89
2019-04-14T09:30:16.568Z,100059.58
2019-04-14T09:32:46.684Z,100121.47
2019-04-14T09:35:16.543Z,100119.70
2019-04-14T09:37:46.519Z,100114.81
2019-04-14T09:40:16.743Z,100121.16
2019-04-14T09:42:46.584Z,100121.02
2019-04-14T09:45:16.502Z,100118.77
2019-04-14T09:47:47.069Z,100120.07
2019-04-14T09:50:16.975Z,100117.80
2019-04-14T09:52:46.906Z,100119.56
2019-04-14T09:55:17.165Z,100120.02
2019-04-14T09:57:47.198Z,100121.95
2019-04-14T10:00:17.462Z,100011.86
2019-04-14T10:02:47.645Z,100118.04
2019-04-14T10:05:17.740Z,100124.23
2019-04-14T10:07:47.596Z,100119.00
2019-04-14T10:10:20.493Z,100116.69
2019-04-14T10:12:51.670Z,100119.58
2019-04-14T10:15:22.433Z,100131.11
2019-04-14T10:17:52.935Z,100123.37
2019-04-14T10:20:23.660Z,100127.22
2019-04-14T10:22:53.648Z,100124.61
2019-04-14T10:25:24.738Z,100124.77
2019-04-14T10:27:55.878Z,100118.67
2019-04-14T10:30:25.796Z,100127.44
2019-04-14T10:32:57.808Z,100133.79
2019-04-14T10:35:27.754Z,100129.34
2019-04-14T10:37:58.518Z,100126.91
2019-04-14T10:40:29.774Z,100125.52
2019-04-14T10:43:01.015Z,100134.80
2019-04-14T10:45:31.403Z,100125.48
2019-04-14T10:48:03.845Z,100122.05
2019-04-14T10:50:34.009Z,100026.33
2019-04-14T10:53:04.561Z,100125.72
2019-04-14T10:55:34.945Z,100122.47
2019-04-14T10:58:08.542Z,100127.44
2019-04-14T11:00:39.279Z,100125.22
2019-04-14T11:03:09.283Z,100130.28
2019-04-14T11:05:47.805Z,100128.97
2019-04-14T11:08:18.578Z,100122.90
2019-04-14T11:10:49.205Z,100127.84
2019-04-14T11:13:19.576Z,100125.41
2019-04-14T11:15:50.022Z,100128.89
2019-04-14T11:18:21.443Z,100121.86
2019-04-14T11:20:51.403Z,100123.02
2019-04-14T11:23:21.713Z,100124.98
2019-04-14T11:25:54.497Z,100122.25
2019-04-14T11:28:25.154Z,100123.45
2019-04-14T11:30:56.754Z,100121.86
2019-04-14T11:33:58.305Z,100143.62
2019-04-14T11:36:47.434Z,100133.39
2019-04-14T11:39:18.420Z,100036.39
2019-04-14T11:41:56.001Z,100140.73
2019-04-14T11:44:27.222Z,100032.19
2019-04-14T11:46:57.615Z,100138.45
2019-04-14T11:49:28.443Z,100131.65
2019-04-14T11:51:58.913Z,100133.38
2019-04-14T11:54:30.036Z,100133.38
2019-04-14T11:57:00.555Z,100140.33
2019-04-14T11:59:39.632Z,100142.46
2019-04-14T12:02:17.513Z,100142.46
2019-04-14T12:04:55.614Z,100141.09
2019-04-14T12:07:43.827Z,100148.67
2019-04-14T12:10:18.181Z,100138.22
2019-04-14T12:12:53.624Z,100142.14
2019-04-14T12:15:25.573Z,100142.14
2019-04-14T12:17:56.321Z,100145.53
2019-04-14T12:20:26.416Z,100150.47
2019-04-14T12:23:02.005Z,100147.37
2019-04-14T12:25:33.590Z,100136.73
2019-04-14T12:28:07.541Z,100136.73
2019-04-14T12:30:39.905Z,100152.78
2019-04-14T12:33:11.465Z,100148.59
2019-04-14T12:35:42.319Z,100157.79
2019-04-14T12:38:14.123Z,100157.73
2019-04-14T12:40:45.245Z,100156.39
2019-04-14T12:43:37.696Z,100156.39
2019-04-14T12:46:33.911Z,100158.95
2019-04-14T12:49:23.810Z,100164.61
2019-04-14T12:52:21.072Z,100155.25
2019-04-14T12:54:43.614Z,100171.52
2019-04-14T12:57:14.414Z,100163.53
2019-04-14T12:59:44.470Z,100164.41
2019-04-14T13:02:20.629Z,100086.08
2019-04-14T13:04:50.655Z,100086.08
2019-04-14T13:07:21.100Z,100168.85
2019-04-14T13:09:51.260Z,100166.41
2019-04-14T13:12:21.866Z,100167.88
2019-04-14T13:14:55.293Z,100160.27
2019-04-14T13:17:26.455Z,100164.42
2019-04-14T13:19:57.431Z,100164.42
2019-04-14T13:22:33.842Z,100155.52
2019-04-14T13:24:59.824Z,100155.64
2019-04-14T13:27:29.714Z,100155.64
2019-04-14T13:30:01.934Z,100151.17
2019-04-14T13:32:36.185Z,100151.17
2019-04-14T13:35:09.963Z,100157.36
2019-04-14T13:37:42.115Z,100157.36
2019-04-14T13:40:12.666Z,100162.87
2019-04-14T13:42:42.721Z,100157.69
2019-04-14T13:45:24.062Z,100168.63
2019-04-14T13:47:54.660Z,100172.22
2019-04-14T13:50:26.277Z,100175.23
2019-04-14T13:52:56.103Z,100071.34
2019-04-14T13:55:26.029Z,100163.30
2019-04-14T13:57:57.112Z,100168.04
2019-04-14T14:00:27.733Z,100173.72
2019-04-14T14:02:58.245Z,100171.45
2019-04-14T14:05:29.088Z,100171.16
2019-04-14T14:07:59.211Z,100177.34
2019-04-14T14:10:31.310Z,100173.81
2019-04-14T14:13:23.898Z,100174.34
2019-04-14T14:16:30.890Z,100173.48
2019-04-14T14:19:08.754Z,100074.34
2019-04-14T14:21:46.578Z,100173.33
2019-04-14T14:24:31.657Z,100188.23
2019-04-14T14:27:05.419Z,100170.14
2019-04-14T14:29:35.958Z,100173.11
2019-04-14T14:32:16.896Z,100066.11
2019-04-14T14:34:47.330Z,100165.09
2019-04-14T14:37:17.565Z,100157.47
2019-04-14T14:39:47.812Z,100170.30
2019-04-14T14:42:20.172Z,100171.97
2019-04-14T14:44:56.783Z,100179.30
2019-04-14T14:47:29.443Z,100172.63
2019-04-14T14:50:27.799Z,100168.72
2019-04-14T14:52:57.868Z,100169.33
2019-04-14T14:55:28.456Z,100168.75
2019-04-14T14:57:58.614Z,100174.02
2019-04-14T15:00:35.191Z,100163.30
2019-04-14T15:03:06.173Z,100166.52
2019-04-14T15:05:41.545Z,100131.59
2019-04-14T15:08:11.693Z,100167.25
2019-04-14T15:10:43.418Z,100168.22
2019-04-14T15:13:17.270Z,100169.57
2019-04-14T15:15:47.881Z,100178.53
2019-04-14T15:18:19.005Z,100170.70
2019-04-14T15:20:52.089Z,100172.18
2019-04-14T15:23:25.366Z,100175.92
2019-04-14T15:25:58.149Z,100172.02
2019-04-14T15:28:31.211Z,100175.15
2019-04-14T15:31:01.518Z,100079.56
2019-04-14T15:33:37.165Z,100188.32
2019-04-14T15:36:11.184Z,100184.45
2019-04-14T15:38:45.585Z,100184.57
2019-04-14T15:41:18.390Z,100178.94
2019-04-14T15:43:48.626Z,100184.16
2019-04-14T15:46:18.915Z,100187.58
2019-04-14T15:48:50.055Z,100187.91
2019-04-14T15:51:20.345Z,100079.62
2019-04-14T15:53:50.800Z,100188.72
2019-04-14T15:56:48.825Z,100191.82
2019-04-14T15:59:40.820Z,100195.97
2019-04-14T16:02:32.863Z,100199.87
2019-04-14T16:05:12.688Z,100202.68
2019-04-14T16:08:07.361Z,100201.87
2019-04-14T16:10:42.518Z,100199.59
2019-04-14T16:13:16.871Z,100199.06
2019-04-14T16:15:59.160Z,100207.83
2019-04-14T16:18:44.845Z,100194.66
2019-04-14T16:21:15.150Z,100203.98
2019-04-14T16:23:50.641Z,100204.18
2019-04-14T16:26:25.792Z,100117.92
2019-04-14T16:29:13.486Z,100211.52
2019-04-14T16:32:00.783Z,100210.86
2019-04-14T16:34:43.106Z,100210.59
2019-04-14T16:37:13.343Z,100207.69
2019-04-14T16:39:43.686Z,100209.50
2019-04-14T16:42:13.827Z,100218.30
2019-04-14T16:44:43.945Z,100215.53
2019-04-14T16:47:14.329Z,100215.06
2019-04-14T16:49:44.311Z,100218.81
2019-04-14T16:52:37.280Z,100219.30
2019-04-14T16:55:30.071Z,100122.97
2019-04-14T16:58:35.184Z,100223.39
2019-04-14T17:01:10.348Z,100223.39
2019-04-14T17:03:44.179Z,100226.48
2019-04-14T17:06:15.514Z,100224.22
2019-04-14T17:08:48.159Z,100218.69
2019-04-14T17:11:21.254Z,100219.34
2019-04-14T17:14:12.185Z,100232.34
2019-04-14T17:17:04.379Z,100124.78
2019-04-14T17:19:57.426Z,100232.17
2019-04-14T17:23:08.460Z,100236.91
2019-04-14T17:26:03.314Z,100233.16
2019-04-14T17:28:45.974Z,100231.51
2019-04-14T17:31:36.470Z,100239.03
2019-04-14T17:34:30.014Z,100240.47
2019-04-14T17:37:17.277Z,100242.61
2019-04-14T17:40:03.372Z,100238.54
2019-04-14T17:42:49.061Z,100241.63
2019-04-14T17:45:30.349Z,100241.30
2019-04-14T17:48:14.672Z,100244.53
2019-04-14T17:51:12.983Z,100252.36
2019-04-14T17:53:48.903Z,100250.89
2019-04-14T17:56:35.039Z,100256.59
2019-04-14T17:59:14.775Z,100268.64
2019-04-14T18:02:03.962Z,100159.26
2019-04-14T18:05:05.495Z,100271.56
2019-04-14T18:07:45.683Z,100268.14
2019-04-14T18:10:37.709Z,100279.03
2019-04-14T18:13:20.763Z,100273.98
2019-04-14T18:16:20.631Z,100274.95
2019-04-14T18:19:12.112Z,100276.75
2019-04-14T18:21:47.633Z,100282.44
2019-04-14T18:24:19.253Z,100284.06
2019-04-14T18:26:50.365Z,100288.46
2019-04-14T18:29:49.325Z,100290.75
2019-04-14T18:32:25.076Z,100301.97
2019-04-14T18:35:07.204Z,100303.30
2019-04-14T18:38:14.933Z,100295.94
2019-04-14T18:41:00.360Z,100192.40
2019-04-14T18:44:00.648Z,100296.59
2019-04-14T18:46:40.916Z,100205.89
2019-04-14T18:49:24.756Z,100301.48
2019-04-14T18:52:19.152Z,100301.31
2019-04-14T18:55:17.458Z,100303.59
2019-04-14T18:58:00.024Z,100311.23
2019-04-14T19:00:45.654Z,100313.19
2019-04-14T19:03:19.211Z,100311.88
2019-04-14T19:05:53.676Z,100313.70
2019-04-14T19:08:25.372Z,100317.77
2019-04-14T19:11:09.059Z,100318.27
2019-04-14T19:13:42.193Z,100320.05
2019-04-14T19:16:38.185Z,100333.73
2019-04-14T19:19:04.175Z,100334.23
2019-04-14T19:21:36.065Z,100332.44
2019-04-14T19:24:07.651Z,100337.14
2019-04-14T19:26:40.820Z,100338.45
2019-04-14T19:29:17.175Z,100237.30
2019-04-14T19:31:51.786Z,100343.16
2019-04-14T19:34:25.549Z,100332.05
2019-04-14T19:36:56.857Z,100343.13
2019-04-14T19:39:28.698Z,100344.58
2019-04-14T19:42:02.912Z,100343.12
2019-04-14T19:44:34.744Z,100342.63
2019-04-14T19:47:06.469Z,100346.34
2019-04-14T19:49:38.233Z,100347.66
2019-04-14T19:52:11.951Z,100344.05
2019-04-14T19:54:45.386Z,100351.53
2019-04-14T19:57:21.175Z,100353.81
2019-04-14T19:59:59.732Z,100354.76
2019-04-14T20:02:36.643Z,100352.34
2019-04-14T20:05:10.447Z,100218.55
2019-04-14T20:07:42.671Z,100355.11
2019-04-14T20:10:14.547Z,100350.55
2019-04-14T20:12:48.013Z,100359.16
2019-04-14T20:15:25.442Z,100354.11
2019-04-14T20:18:19.616Z,100361.77
2019-04-14T20:21:10.135Z,100361.42
2019-04-14T20:23:54.505Z,100359.46
2019-04-14T20:26:33.421Z,100367.29
2019-04-14T20:29:17.201Z,100367.78
2019-04-14T20:32:08.412Z,100361.91
2019-04-14T20:34:39.848Z,100371.36
2019-04-14T20:37:12.197Z,100377.61
2019-04-14T20:39:45.751Z,100374.33
2019-04-14T20:42:18.769Z,100379.25
2019-04-14T20:44:51.876Z,100376.80
2019-04-14T20:47:38.318Z,100374.33
2019-04-14T20:50:08.336Z,100375.12
2019-04-14T20:52:40.073Z,100371.05
2019-04-14T20:55:11.888Z,100371.02
2019-04-14T20:57:44.449Z,100373.92
2019-04-14T21:00:15.612Z,100365.11
2019-04-14T21:03:27.365Z,100376.70
2019-04-14T21:06:29.681Z,100376.70
2019-04-14T21:09:12.982Z,100375.58
2019-04-14T21:12:02.171Z,100373.79
2019-04-14T21:14:45.507Z,100391.73
2019-04-14T21:17:28.128Z,100280.81
2019-04-14T21:20:19.397Z,100380.64
2019-04-14T21:23:18.363Z,100380.14
2019-04-14T21:26:11.106Z,100386.83
2019-04-14T21:29:00.312Z,100382.43
2019-04-14T21:31:43.874Z,100388.92
2019-04-14T21:34:27.197Z,100386.81
2019-04-14T21:37:16.693Z,100386.97
2019-04-14T21:39:52.185Z,100384.39
2019-04-14T21:42:34.808Z,100385.37
2019-04-14T21:45:13.050Z,100383.58
2019-04-14T21:47:46.199Z,100294.30
2019-04-14T21:50:16.655Z,100386.37
2019-04-14T21:52:49.801Z,100392.23
2019-04-14T21:55:23.427Z,100393.38
2019-04-14T21:58:19.429Z,100395.83
2019-04-14T22:01:48.910Z,100394.17
2019-04-14T22:04:38.234Z,100407.39
2019-04-14T22:07:30.502Z,100407.39
2019-04-14T22:10:13.301Z,100406.22
2019-04-14T22:12:45.615Z,100410.45
2019-04-14T22:15:17.773Z,100411.11
2019-04-14T22:17:51.489Z,100416.37
2019-04-14T22:20:22.557Z,100321.72
2019-04-14T22:22:58.342Z,100410.63
2019-04-14T22:25:29.744Z,100412.09
2019-04-14T22:28:00.228Z,100416.49
2019-04-14T22:30:31.419Z,100417.80
2019-04-14T22:33:05.943Z,100414.53
2019-04-14T22:35:37.869Z,100418.16
2019-04-14T22:38:09.289Z,100418.64
2019-04-14T22:40:40.555Z,100418.64
2019-04-14T22:43:11.593Z,100424.34
2019-04-14T22:45:42.517Z,100419.45
2019-04-14T22:48:14.389Z,100418.94
2019-04-14T22:50:45.879Z,100419.13
2019-04-14T22:53:16.261Z,100425.02
2019-04-14T22:55:49.724Z,100426.79
2019-04-14T22:58:21.959Z,100433.96
2019-04-14T23:01:10.826Z,100432.52
2019-04-14T23:03:52.170Z,100437.88
2019-04-14T23:06:39.978Z,100442.12
2019-04-14T23:09:30.601Z,100435.09
2019-04-14T23:12:18.798Z,100447.33
2019-04-14T23:14:54.012Z,100339.42
2019-04-14T23:17:50.999Z,100441.92
2019-04-14T23:20:39.974Z,100438.17
2019-04-14T23:23:29.540Z,100439.77
2019-04-14T23:26:00.887Z,100444.02
2019-04-14T23:28:31.929Z,100450.53
2019-04-14T23:31:02.332Z,100446.30
2019-04-14T23:33:32.947Z,100446.48
2019-04-14T23:36:04.410Z,100443.71
2019-04-14T23:38:36.838Z,100441.75
2019-04-14T23:41:08.562Z,100440.47
2019-04-14T23:43:39.403Z,100440.98
2019-04-14T23:46:09.351Z,100441.80
2019-04-14T23:48:41.230Z,100440.84
2019-04-14T23:51:11.463Z,100439.55
2019-04-14T23:53:42.327Z,100439.90
2019-04-14T23:56:13.907Z,100444.80
2019-04-14T23:58:44.685Z,100439.59
